Medford, OR (97501)

16:48 PDT le 31 août 2015 (GMT -0700)
Southwest Medford (CW2551) | | Change Station
CLOSE
Current Station
Stations météorologiques personnelles
Location: Medford, OR
Altitude: 1472 ft
Stations météo à proximité

Alt. 1472 ft 42.31 °N, 122.90 °W | Updated 28 seconds ago

Ciel dégagé
Ciel dégagé
84.1 ° F
Paraît 82 ° F
N
9.2
Vent Variable Vent de NNO
Gusts 9.2 mph

Aujourd'hui
Haut(e) -- | Bas -- ° F
--% Risque de précip.
Hier
Haut(e) -- | Bas -- ° F
Precip. -- pouce
6:35 AM 7:47 PM
Lune gibbeuse décroissante, 93% visible
Pression 29.90 pouce
Visibilité 10.0 Miles terrestres
Nuages Ciel dégagé
indice de chaleur 82 ° F
Point de rosée 51 ° F
Humidité 32%
Précipitations 0.00 pouce
Profondeur de la couche neigeuse Non disponible.
UV 1.6 sur 12
Pollen 5.80 sur 12
Qualité de l'air Non disponible.
Flu Activity Non disponible.
METAR KMFR 312253Z 00000KT 10SM CLR 28/07 A2993 RMK AO2 SLP125 T02830072
Pression 29.90 pouce
Visibilité 10.0 Miles terrestres
Nuages Ciel dégagé
indice de chaleur 82 ° F
Point de rosée 51 ° F
Humidité 32%
Précipitations 0.00 pouce
Profondeur de la couche neigeuse Non disponible.
UV 1.6 sur 12
Pollen 5.80 sur 12
Qualité de l'air Non disponible.
Flu Activity Non disponible.
METAR KMFR 312253Z 00000KT 10SM CLR 28/07 A2993 RMK AO2 SLP125 T02830072

10-Day Weather Forecast

×

Almanac

Astronomie

Aug. 31, 2015 Lever Coucher
Temps réel
Crépuscule civil
Crépuscule nautique
Crépuscule astronomique
Lune
Durée de lumière visible
Longueur du jour
Tomorrow will be .
, % of the Moon is Illuminated

Extrêmes aujourd'hui

State Highs State Lows

Community

WunderPhotos

Upload Photos

1,851,395 Photos téléchargées !

WunderBlogs® & News

Nearby

Qualité de l'air

  Qualité de l'air Indice de la qualité de l'air Polluant
Not available.

Épaisseur de neige

Station Depth Altitude

Activité sismique

Ville Distance Mag. Time & Date
Minimum magnitude displayed is 2.5.

Températures des eaux côtières

Lieu Température

Stations

Stations météo à proximité

Emplacement de la station Température Refroidissement éolien Point de rosée Humidité Vent Precip. Alt. Mise à jour Type